Merrill, WI (54452)

6:03 PM CST on December 03, 2016 (GMT -0600)
West Taylor Merrill | | Change Station

Elev 1309 ft 45.19 °N, 89.71 °W | Updated 26 seconds ago

Overcast
Overcast
28.9 °F
Feels Like 29 °F
N
0.2
Wind Variable Wind from WSW
Gusts 2.5 mph

Today
High -- | Low -- °F
--% Chance of Precip.
Yesterday
High -- | Low -- °F
Precip. -- in
Pressure 30.25 in
Visibility 10.0 miles
Clouds Overcast 2400 ft
Windchill 29 °F
Dew Point 13 °F
Humidity 51%
Rainfall 0.00 in
Snow Depth Not available.
7:20 AM 4:17 PM
Waxing Crescent, 18% visible
METAR KRRL 032355Z AUTO 00000KT 10SM OVC024 M02/M06 A3025 RMK AO2 T10181060 11017 21022
Pressure 30.25 in
Visibility 10.0 miles
Clouds Overcast 2400 ft
Windchill 29 °F
Dew Point 13 °F
Humidity 51%
Rainfall 0.00 in
Snow Depth Not available.
7:20 AM 4:17 PM
Waxing Crescent, 18% visible
METAR KRRL 032355Z AUTO 00000KT 10SM OVC024 M02/M06 A3025 RMK AO2 T10181060 11017 21022

10-Day Weather Forecast

Almanac

Astronomy

Dec. 03, 2016 Rise Set
Actual Time
Civil Twilight
Nautical Twilight
Astronomical Twilight
Moon
Length of Visible Light
Length of Day
Tomorrow will be .
, % of the Moon is Illuminated

Today's Extremes

State Highs State Lows

Community

WunderPhotos

Upload Photos

1,955,536 photos uploaded!

WunderBlog® & News

Nearby

Air Quality

  Air Quality AQ Index Pollutant
Not available.

Snow Depth

Station Depth Elevation

Earthquake Activity

City Distance Mag. Time & Date
Minimum magnitude displayed is 2.5.

Coastal Water Temperatures

Place Temperature

Stations

Nearby Weather Stations

Station Location Temp. Windchill Dew Point Humidity Wind Precip. Elev Updated Type
                   

Watches & Warnings

There are currently no watches in effect.